Deseronto, Canada
Current Conditions -  °F | °C
As of 11:00 PM on Wednesday 28 Jan 2015 (Local Time) from CYGK Reporting Station
Clear Clear  
Wind Chill:   Ceiling: Unl
Heat Index:   Visibility: 15mi
Dew Point:   Wind: 2mph
Humidity: 79%   Direction: 90°E
Pressure: 30.3"   Gusts: NA
Location:  44.2°N, 77.03°W
Report Text: CYGK 290400Z 09002KT 15SM SKC M14/M17 A3030 RMK LAST STFD OBS/NEXT 291100 UTC SLP268
Loading
Personal Weather Stations






























Interactive Weather Map New forecast layout! Learn more

10-Day Weather Forecast

Advertisements
Track Severe Weather on mobile